createdAt,value
2023-05-21T00:02:00.141Z,99136.02
2023-05-21T00:04:29.797Z,99139.06
2023-05-21T00:06:58.824Z,99138.05
2023-05-21T00:09:25.833Z,99142.85
2023-05-21T00:11:52.974Z,99139.30
2023-05-21T00:14:20.112Z,99140.74
2023-05-21T00:16:47.276Z,99136.79
2023-05-21T00:19:14.397Z,99138.26
2023-05-21T00:21:41.449Z,99136.20
2023-05-21T00:24:08.923Z,99134.73
2023-05-21T00:26:35.986Z,99133.35
2023-05-21T00:29:03.345Z,99134.40
2023-05-21T00:31:31.111Z,99133.04
2023-05-21T00:33:58.309Z,99127.60
2023-05-21T00:36:25.400Z,99127.20
2023-05-21T00:38:52.419Z,99127.73
2023-05-21T00:41:19.385Z,99133.64
2023-05-21T00:43:46.765Z,99134.95
2023-05-21T00:46:19.682Z,99132.86
2023-05-21T00:48:47.423Z,99137.89
2023-05-21T00:51:15.005Z,99137.42
2023-05-21T00:53:42.089Z,99135.07
2023-05-21T00:56:09.202Z,99138.69
2023-05-21T00:58:36.388Z,99132.88
2023-05-21T01:01:03.845Z,99139.11
2023-05-21T01:03:38.735Z,99137.25
2023-05-21T01:06:08.134Z,99140.27
2023-05-21T01:08:36.368Z,99140.45
2023-05-21T01:11:04.085Z,99136.85
2023-05-21T01:13:31.567Z,99132.42
2023-05-21T01:15:59.331Z,99132.72
2023-05-21T01:18:26.443Z,99132.09
2023-05-21T01:20:53.750Z,99137.30
2023-05-21T01:23:21.133Z,99136.05
2023-05-21T01:25:48.271Z,99136.04
2023-05-21T01:28:15.286Z,99128.81
2023-05-21T01:30:42.604Z,99131.58
2023-05-21T01:33:15.415Z,99129.38
2023-05-21T01:35:46.716Z,99121.73
2023-05-21T01:38:27.544Z,99122.06
2023-05-21T01:41:05.829Z,99119.62
2023-05-21T01:43:34.898Z,99119.14
2023-05-21T01:46:02.144Z,99122.62
2023-05-21T01:48:30.446Z,99123.23
2023-05-21T01:51:02.168Z,99127.42
2023-05-21T01:53:29.375Z,99132.60
2023-05-21T01:55:56.455Z,99130.86
2023-05-21T01:58:24.336Z,99131.90
2023-05-21T02:00:52.030Z,99137.34
2023-05-21T02:03:20.145Z,99134.53
2023-05-21T02:05:47.401Z,99132.52
2023-05-21T02:08:15.433Z,99128.21
2023-05-21T02:10:42.754Z,99126.13
2023-05-21T02:13:10.050Z,99131.98
2023-05-21T02:15:39.042Z,99137.15
2023-05-21T02:18:06.257Z,99129.28
2023-05-21T02:20:33.560Z,99127.86
2023-05-21T02:23:00.904Z,99132.88
2023-05-21T02:25:28.024Z,99128.51
2023-05-21T02:27:57.182Z,99129.91
2023-05-21T02:30:24.433Z,99130.52
2023-05-21T02:32:53.423Z,99129.23
2023-05-21T02:35:20.716Z,99126.50
2023-05-21T02:37:49.129Z,99126.36
2023-05-21T02:40:16.343Z,99126.91
2023-05-21T02:42:43.530Z,99130.05
2023-05-21T02:45:12.598Z,99133.75
2023-05-21T02:47:41.736Z,99132.52
2023-05-21T02:50:09.320Z,99135.86
2023-05-21T02:52:42.978Z,99139.73
2023-05-21T02:55:10.132Z,99147.58
2023-05-21T02:57:37.209Z,99145.94
2023-05-21T03:00:06.211Z,99147.33
2023-05-21T03:02:34.578Z,99149.16
2023-05-21T03:05:01.644Z,99151.93
2023-05-21T03:07:29.023Z,99153.73
2023-05-21T03:09:56.387Z,99156.55
2023-05-21T03:12:23.840Z,99154.30
2023-05-21T03:14:51.597Z,99151.70
2023-05-21T03:17:20.688Z,99148.21
2023-05-21T03:19:49.236Z,99151.11
2023-05-21T03:22:17.352Z,99151.55
2023-05-21T03:24:46.468Z,99153.81
2023-05-21T03:27:13.904Z,99151.39
2023-05-21T03:29:41.206Z,99150.40
2023-05-21T03:32:08.855Z,99150.50
2023-05-21T03:34:36.247Z,99151.07
2023-05-21T03:37:06.010Z,99146.62
2023-05-21T03:39:33.766Z,99145.77
2023-05-21T03:42:00.897Z,99147.55
2023-05-21T03:44:35.712Z,99143.38
2023-05-21T03:47:38.162Z,99144.11
2023-05-21T03:50:07.934Z,99150.61
2023-05-21T03:52:35.753Z,99151.73
2023-05-21T03:55:02.964Z,99148.13
2023-05-21T03:57:30.547Z,99151.60
2023-05-21T03:59:59.124Z,99149.25
2023-05-21T04:02:27.533Z,99148.26
2023-05-21T04:04:56.040Z,99148.04
2023-05-21T04:07:23.961Z,99143.17
2023-05-21T04:09:51.329Z,99143.02
2023-05-21T04:12:20.375Z,99141.93
2023-05-21T04:14:47.682Z,99143.79
2023-05-21T04:17:14.746Z,99140.52
2023-05-21T04:19:42.158Z,99139.39
2023-05-21T04:22:10.593Z,99137.66
2023-05-21T04:24:38.762Z,99136.17
2023-05-21T04:27:16.811Z,99141.21
2023-05-21T04:29:44.711Z,99138.40
2023-05-21T04:32:12.057Z,99138.92
2023-05-21T04:34:42.977Z,99136.13
2023-05-21T04:37:10.286Z,99138.53
2023-05-21T04:39:37.278Z,99136.77
2023-05-21T04:42:04.626Z,99137.81
2023-05-21T04:44:31.699Z,99132.61
2023-05-21T04:47:00.677Z,99136.98
2023-05-21T04:49:27.836Z,99131.66
2023-05-21T04:51:55.222Z,99132.11
2023-05-21T04:54:22.946Z,99132.45
2023-05-21T04:56:50.276Z,99134.19
2023-05-21T04:59:18.729Z,99132.66
2023-05-21T05:01:46.224Z,99133.88
2023-05-21T05:04:13.244Z,99132.77
2023-05-21T05:06:40.767Z,99135.54
2023-05-21T05:09:08.803Z,99130.12
2023-05-21T05:11:36.079Z,99124.10
2023-05-21T05:14:03.077Z,99123.05
2023-05-21T05:16:31.215Z,99119.56
2023-05-21T05:18:58.490Z,99117.73
2023-05-21T05:21:26.398Z,99113.36
2023-05-21T05:23:53.467Z,99117.00
2023-05-21T05:26:23.714Z,99115.24
2023-05-21T05:28:50.787Z,99117.81
2023-05-21T05:31:18.764Z,99117.86
2023-05-21T05:33:46.413Z,99118.63
2023-05-21T05:36:13.657Z,99118.40
2023-05-21T05:38:41.545Z,99116.41
2023-05-21T05:41:08.711Z,99114.30
2023-05-21T05:43:36.153Z,99108.52
2023-05-21T05:46:03.928Z,99110.39
2023-05-21T05:48:31.322Z,99113.98
2023-05-21T05:50:58.586Z,99113.54
2023-05-21T05:53:26.121Z,99115.52
2023-05-21T05:55:53.303Z,99115.30
2023-05-21T05:58:20.826Z,99115.24
2023-05-21T06:00:59.632Z,99114.97
2023-05-21T06:03:27.222Z,99110.39
2023-05-21T06:05:54.385Z,99111.96
2023-05-21T06:08:21.452Z,99107.85
2023-05-21T06:10:48.654Z,99104.86
2023-05-21T06:13:16.045Z,99099.50
2023-05-21T06:15:43.496Z,99100.60
2023-05-21T06:18:11.584Z,99096.73
2023-05-21T06:20:38.728Z,99093.06
2023-05-21T06:23:07.472Z,99091.20
2023-05-21T06:25:35.549Z,99092.38
2023-05-21T06:28:03.171Z,99088.98
2023-05-21T06:30:30.947Z,99085.88
2023-05-21T06:32:59.711Z,99088.05
2023-05-21T06:35:26.857Z,99083.48
2023-05-21T06:37:53.985Z,99082.64
2023-05-21T06:40:21.783Z,99079.20
2023-05-21T06:42:49.657Z,99076.75
2023-05-21T06:45:23.354Z,99078.62
2023-05-21T06:47:53.117Z,99074.42
2023-05-21T06:50:20.409Z,99073.37
2023-05-21T06:52:47.559Z,99071.69
2023-05-21T06:55:14.748Z,99068.67
2023-05-21T06:58:00.993Z,99063.98
2023-05-21T07:00:28.191Z,99061.45
2023-05-21T07:02:55.274Z,99062.30
2023-05-21T07:05:22.445Z,99060.33
2023-05-21T07:07:49.856Z,99058.45
2023-05-21T07:10:17.238Z,99057.64
2023-05-21T07:12:44.417Z,99053.77
2023-05-21T07:15:11.837Z,99054.34
2023-05-21T07:17:39.442Z,99051.54
2023-05-21T07:20:07.905Z,99050.98
2023-05-21T07:22:41.129Z,99048.11
2023-05-21T07:25:09.081Z,99046.06
2023-05-21T07:27:36.444Z,99045.44
2023-05-21T07:30:04.146Z,99038.18
2023-05-21T07:32:32.543Z,99034.83
2023-05-21T07:35:02.163Z,99037.27
2023-05-21T07:37:30.866Z,99037.92
2023-05-21T07:40:01.246Z,99040.27
2023-05-21T07:42:30.987Z,99043.45
2023-05-21T07:44:58.755Z,99043.52
2023-05-21T07:47:26.527Z,99038.05
2023-05-21T07:49:53.742Z,99035.88
2023-05-21T07:52:21.104Z,99034.95
2023-05-21T07:54:48.108Z,99033.59
2023-05-21T07:57:15.458Z,99035.34
2023-05-21T07:59:57.282Z,99037.15
2023-05-21T08:02:24.510Z,99033.89
2023-05-21T08:05:11.814Z,99027.92
2023-05-21T08:07:39.036Z,99025.67
2023-05-21T08:10:06.948Z,99025.02
2023-05-21T08:12:34.610Z,99027.64
2023-05-21T08:15:01.987Z,99028.05
2023-05-21T08:17:30.270Z,99026.80
2023-05-21T08:19:57.971Z,99024.50
2023-05-21T08:22:25.064Z,99019.84
2023-05-21T08:24:52.654Z,99020.05
2023-05-21T08:27:19.798Z,99016.84
2023-05-21T08:29:47.084Z,99022.73
2023-05-21T08:32:14.183Z,99021.95
2023-05-21T08:34:41.605Z,99020.88
2023-05-21T08:37:41.135Z,99015.29
2023-05-21T08:40:32.424Z,99017.55
2023-05-21T08:42:59.504Z,99019.20
2023-05-21T08:45:39.028Z,99013.69
2023-05-21T08:48:06.502Z,99013.64
2023-05-21T08:50:34.122Z,99012.27
2023-05-21T08:53:12.765Z,99021.20
2023-05-21T08:55:52.712Z,99022.61
2023-05-21T08:58:20.356Z,99017.24
2023-05-21T09:00:47.493Z,99012.85
2023-05-21T09:03:17.670Z,99013.11
2023-05-21T09:05:45.855Z,99017.23
2023-05-21T09:08:17.466Z,99013.58
2023-05-21T09:11:16.919Z,99005.80
2023-05-21T09:13:48.285Z,99004.10
2023-05-21T09:16:21.789Z,99006.92
2023-05-21T09:18:49.266Z,99010.90
2023-05-21T09:21:24.602Z,99010.63
2023-05-21T09:23:55.295Z,99003.95
2023-05-21T09:26:22.538Z,99002.95
2023-05-21T09:28:51.534Z,99002.68
2023-05-21T09:31:19.619Z,99001.00
2023-05-21T09:33:49.654Z,98994.58
2023-05-21T09:36:20.520Z,99001.70
2023-05-21T09:38:48.953Z,98997.06
2023-05-21T09:41:19.527Z,98995.51
2023-05-21T09:43:48.701Z,98992.60
2023-05-21T09:46:15.856Z,98992.14
2023-05-21T09:48:43.820Z,98992.75
2023-05-21T09:51:15.260Z,98985.65
2023-05-21T09:53:58.162Z,98993.45
2023-05-21T09:56:29.363Z,98996.92
2023-05-21T09:58:57.785Z,98992.73
2023-05-21T10:01:25.319Z,98994.29
2023-05-21T10:03:59.401Z,98991.04
2023-05-21T10:06:31.180Z,98981.41
2023-05-21T10:09:05.786Z,98978.36
2023-05-21T10:11:33.407Z,98984.52
2023-05-21T10:14:13.307Z,98977.78
2023-05-21T10:16:40.506Z,98978.50
2023-05-21T10:19:11.213Z,98973.02
2023-05-21T10:21:39.748Z,98965.52
2023-05-21T10:24:07.747Z,98966.52
2023-05-21T10:26:34.851Z,98965.48
2023-05-21T10:29:01.889Z,98964.97
2023-05-21T10:31:29.247Z,98968.23
2023-05-21T10:33:56.477Z,98969.63
2023-05-21T10:36:26.505Z,98964.16
2023-05-21T10:38:53.492Z,98958.16
2023-05-21T10:41:21.209Z,98957.94
2023-05-21T10:44:06.749Z,98963.46
2023-05-21T10:47:12.095Z,98959.05
2023-05-21T10:49:59.513Z,98960.41
2023-05-21T10:52:36.046Z,98958.34
2023-05-21T10:55:24.825Z,98957.91
2023-05-21T10:58:09.867Z,98954.25
2023-05-21T11:00:37.740Z,98954.20
2023-05-21T11:03:05.091Z,98955.50
2023-05-21T11:05:40.335Z,98950.70
2023-05-21T11:08:21.189Z,98948.27
2023-05-21T11:10:55.743Z,98946.66
2023-05-21T11:13:23.706Z,98943.66
2023-05-21T11:16:01.493Z,98941.60
2023-05-21T11:18:38.065Z,98940.45
2023-05-21T11:21:06.357Z,98933.92
2023-05-21T11:23:51.685Z,98930.47
2023-05-21T11:26:19.311Z,98930.23
2023-05-21T11:28:46.904Z,98931.66
2023-05-21T11:31:22.578Z,98931.02
2023-05-21T11:34:14.469Z,98930.05
2023-05-21T11:36:42.457Z,98929.18
2023-05-21T11:39:22.666Z,98919.84
2023-05-21T11:42:04.475Z,98910.39
2023-05-21T11:44:45.547Z,98910.60
2023-05-21T11:47:17.873Z,98910.41
2023-05-21T11:49:45.298Z,98915.35
2023-05-21T11:52:12.827Z,98912.42
2023-05-21T11:54:42.034Z,98908.07
2023-05-21T11:57:09.379Z,98912.47
2023-05-21T11:59:36.724Z,98909.30
2023-05-21T12:02:04.218Z,98905.81
2023-05-21T12:04:38.565Z,98904.02
2023-05-21T12:07:09.462Z,98907.27
2023-05-21T12:09:43.362Z,98904.21
2023-05-21T12:12:11.425Z,98908.36
2023-05-21T12:14:38.614Z,98908.77
2023-05-21T12:17:07.001Z,98905.55
2023-05-21T12:19:35.689Z,98907.67
2023-05-21T12:22:06.355Z,98906.63
2023-05-21T12:24:34.159Z,98910.39
2023-05-21T12:27:02.479Z,98908.70
2023-05-21T12:29:32.508Z,98905.31
2023-05-21T12:32:00.375Z,98901.30
2023-05-21T12:34:40.143Z,98903.05
2023-05-21T12:37:07.906Z,98901.97
2023-05-21T12:39:43.348Z,98899.48
2023-05-21T12:42:10.486Z,98890.80
2023-05-21T12:44:46.335Z,98895.08
2023-05-21T12:47:13.860Z,98893.55
2023-05-21T12:49:42.286Z,98896.40
2023-05-21T12:52:11.225Z,98893.59
2023-05-21T12:54:39.753Z,98896.23
2023-05-21T12:57:17.719Z,98890.27
2023-05-21T12:59:48.426Z,98883.65
2023-05-21T13:02:17.146Z,98885.66
2023-05-21T13:04:44.182Z,98889.81
2023-05-21T13:07:11.234Z,98888.30
2023-05-21T13:09:38.216Z,98888.05
2023-05-21T13:12:05.789Z,98884.27
2023-05-21T13:14:34.136Z,98885.63
2023-05-21T13:17:01.254Z,98882.39
2023-05-21T13:19:29.249Z,98880.95
2023-05-21T13:21:56.801Z,98887.39
2023-05-21T13:24:24.039Z,98885.34
2023-05-21T13:26:51.129Z,98880.80
2023-05-21T13:29:18.833Z,98878.33
2023-05-21T13:31:45.832Z,98877.48
2023-05-21T13:34:12.997Z,98872.40
2023-05-21T13:36:40.911Z,98878.81
2023-05-21T13:39:08.012Z,98876.97
2023-05-21T13:41:35.137Z,98875.92
2023-05-21T13:44:02.556Z,98867.98
2023-05-21T13:46:30.515Z,98868.71
2023-05-21T13:48:57.662Z,98865.46
2023-05-21T13:51:38.007Z,98865.82
2023-05-21T13:54:05.928Z,98862.45
2023-05-21T13:56:34.191Z,98858.23
2023-05-21T13:59:01.619Z,98851.35
2023-05-21T14:01:29.099Z,98861.39
2023-05-21T14:03:56.356Z,98861.29
2023-05-21T14:06:23.314Z,98857.77
2023-05-21T14:08:50.501Z,98859.27
2023-05-21T14:11:19.076Z,98857.92
2023-05-21T14:13:47.032Z,98854.02
2023-05-21T14:16:14.118Z,98849.66
2023-05-21T14:18:41.668Z,98848.91
2023-05-21T14:21:08.872Z,98846.82
2023-05-21T14:23:36.121Z,98842.33
2023-05-21T14:26:03.304Z,98844.27
2023-05-21T14:28:30.473Z,98841.34
2023-05-21T14:30:57.501Z,98841.31
2023-05-21T14:33:24.455Z,98845.66
2023-05-21T14:35:51.478Z,98844.33
2023-05-21T14:38:18.589Z,98847.76
2023-05-21T14:40:45.692Z,98846.26
2023-05-21T14:43:12.689Z,98850.94
2023-05-21T14:45:40.015Z,98849.24
2023-05-21T14:48:11.870Z,98843.20
2023-05-21T14:50:39.084Z,98842.11
2023-05-21T14:53:07.063Z,98840.38
2023-05-21T14:55:36.884Z,98840.05
2023-05-21T14:58:04.732Z,98841.98
2023-05-21T15:00:32.400Z,98838.16
2023-05-21T15:02:59.666Z,98832.17
2023-05-21T15:05:28.155Z,98830.63
2023-05-21T15:07:58.868Z,98830.44
2023-05-21T15:10:26.591Z,98828.30
2023-05-21T15:12:53.583Z,98829.97
2023-05-21T15:15:21.293Z,98831.38
2023-05-21T15:18:29.344Z,98833.32
2023-05-21T15:20:56.346Z,98834.10
2023-05-21T15:23:23.810Z,98834.92
2023-05-21T15:25:50.866Z,98832.05
2023-05-21T15:28:17.820Z,98834.16
2023-05-21T15:30:44.890Z,98831.88
2023-05-21T15:33:12.125Z,98831.27
2023-05-21T15:35:39.643Z,98828.42
2023-05-21T15:38:07.102Z,98829.36
2023-05-21T15:40:34.238Z,98831.23
2023-05-21T15:43:01.414Z,98832.15
2023-05-21T15:45:28.434Z,98839.70
2023-05-21T15:47:55.638Z,98836.40
2023-05-21T15:50:22.763Z,98833.75
2023-05-21T15:52:51.662Z,98835.91
2023-05-21T15:55:20.635Z,98833.15
2023-05-21T15:57:47.809Z,98835.02
2023-05-21T16:00:15.204Z,98836.14
2023-05-21T16:02:43.036Z,98836.30
2023-05-21T16:05:10.401Z,98832.93
2023-05-21T16:07:38.361Z,98838.21
2023-05-21T16:10:06.628Z,98835.39
2023-05-21T16:12:34.001Z,98837.45
2023-05-21T16:15:01.134Z,98836.20
2023-05-21T16:17:28.165Z,98834.63
2023-05-21T16:19:55.234Z,98835.65
2023-05-21T16:22:23.809Z,98835.33
2023-05-21T16:24:50.955Z,98831.05
2023-05-21T16:27:18.097Z,98829.45
2023-05-21T16:29:45.234Z,98830.84
2023-05-21T16:32:14.177Z,98830.21
2023-05-21T16:34:41.477Z,98828.41
2023-05-21T16:37:09.839Z,98827.94
2023-05-21T16:39:37.817Z,98833.09
2023-05-21T16:42:04.910Z,98831.19
2023-05-21T16:44:32.503Z,98832.79
2023-05-21T16:46:59.662Z,98831.98
2023-05-21T16:49:27.268Z,98832.56
2023-05-21T16:51:54.510Z,98832.09
2023-05-21T16:54:21.696Z,98833.35
2023-05-21T16:56:48.887Z,98834.63
2023-05-21T16:59:16.259Z,98834.08
2023-05-21T17:01:43.301Z,98832.70
2023-05-21T17:04:11.003Z,98837.20
2023-05-21T17:06:37.920Z,98836.95
2023-05-21T17:09:04.922Z,98837.61
2023-05-21T17:11:32.210Z,98841.73
2023-05-21T17:13:59.332Z,98844.70
2023-05-21T17:16:26.755Z,98844.59
2023-05-21T17:18:53.897Z,98839.41
2023-05-21T17:21:21.356Z,98843.10
2023-05-21T17:23:48.281Z,98838.98
2023-05-21T17:26:15.284Z,98842.27
2023-05-21T17:28:43.199Z,98844.80
2023-05-21T17:31:10.876Z,98839.80
2023-05-21T17:33:39.358Z,98837.83
2023-05-21T17:36:06.835Z,98837.62
2023-05-21T17:38:33.938Z,98834.91
2023-05-21T17:41:01.030Z,98831.35
2023-05-21T17:43:28.092Z,98835.86
2023-05-21T17:45:55.086Z,98836.59
2023-05-21T17:48:22.105Z,98836.42
2023-05-21T17:50:49.198Z,98840.59
2023-05-21T17:53:16.703Z,98840.34
2023-05-21T17:55:44.146Z,98840.33
2023-05-21T17:58:11.210Z,98837.60
2023-05-21T18:00:38.371Z,98832.30
2023-05-21T18:03:05.695Z,98832.85
2023-05-21T18:05:32.822Z,98839.27
2023-05-21T18:08:01.311Z,98840.14
2023-05-21T18:10:28.793Z,98839.92
2023-05-21T18:12:55.875Z,98836.50
2023-05-21T18:15:22.997Z,98840.59
2023-05-21T18:17:50.023Z,98841.70
2023-05-21T18:20:17.237Z,98841.51
2023-05-21T18:22:45.594Z,98842.08
2023-05-21T18:25:12.656Z,98843.77
2023-05-21T18:27:39.787Z,98842.47
2023-05-21T18:30:08.395Z,98842.63
2023-05-21T18:32:38.689Z,98849.80
2023-05-21T18:35:11.969Z,98852.19
2023-05-21T18:37:42.652Z,98854.90
2023-05-21T18:40:10.942Z,98858.62
2023-05-21T18:42:38.191Z,98856.71
2023-05-21T18:45:09.219Z,98855.69
2023-05-21T18:47:36.492Z,98858.41
2023-05-21T18:50:03.816Z,98862.79
2023-05-21T18:52:31.137Z,98869.83
2023-05-21T18:54:58.236Z,98871.70
2023-05-21T18:57:25.225Z,98872.86
2023-05-21T18:59:52.286Z,98874.39
2023-05-21T19:02:19.407Z,98877.14
2023-05-21T19:04:46.547Z,98879.48
2023-05-21T19:07:13.780Z,98878.73
2023-05-21T19:09:40.802Z,98877.02
2023-05-21T19:12:07.998Z,98880.55
2023-05-21T19:14:35.249Z,98884.61
2023-05-21T19:17:02.739Z,98887.37
2023-05-21T19:19:29.970Z,98885.56
2023-05-21T19:21:57.292Z,98895.22
2023-05-21T19:24:24.330Z,98886.21
2023-05-21T19:26:51.388Z,98892.03
2023-05-21T19:29:18.352Z,98890.39
2023-05-21T19:31:45.460Z,98890.54
2023-05-21T19:34:12.526Z,98893.05
2023-05-21T19:36:52.345Z,98893.20
2023-05-21T19:39:20.479Z,98890.31
2023-05-21T19:41:47.483Z,98888.73
2023-05-21T19:44:14.677Z,98887.02
2023-05-21T19:46:41.669Z,98886.57
2023-05-21T19:49:10.649Z,98888.79
2023-05-21T19:51:37.657Z,98888.00
2023-05-21T19:54:04.661Z,98891.30
2023-05-21T19:56:32.396Z,98892.64
2023-05-21T19:58:59.378Z,98889.60
2023-05-21T20:01:26.751Z,98893.44
2023-05-21T20:03:53.803Z,98889.14
2023-05-21T20:06:21.085Z,98891.27
2023-05-21T20:08:48.286Z,98894.91
2023-05-21T20:11:15.600Z,98895.50
2023-05-21T20:13:42.619Z,98896.12
2023-05-21T20:16:10.692Z,98897.08
2023-05-21T20:18:37.754Z,98894.70
2023-05-21T20:21:06.243Z,98897.81
2023-05-21T20:23:35.024Z,98897.14
2023-05-21T20:26:02.079Z,98896.30
2023-05-21T20:28:30.119Z,98905.48
2023-05-21T20:31:02.640Z,98905.58
2023-05-21T20:33:31.437Z,98904.04
2023-05-21T20:35:58.548Z,98906.52
2023-05-21T20:38:28.585Z,98908.97
2023-05-21T20:40:55.864Z,98906.98
2023-05-21T20:43:24.501Z,98905.87
2023-05-21T20:45:59.593Z,98908.73
2023-05-21T20:48:29.828Z,98904.59
2023-05-21T20:50:57.604Z,98906.98
2023-05-21T20:53:25.119Z,98903.04
2023-05-21T20:55:54.790Z,98904.05
2023-05-21T20:58:23.860Z,98901.97
2023-05-21T21:00:50.957Z,98905.57
2023-05-21T21:03:18.510Z,98908.81
2023-05-21T21:05:45.610Z,98907.86
2023-05-21T21:08:12.793Z,98906.83
2023-05-21T21:10:42.442Z,98909.52
2023-05-21T21:13:09.787Z,98907.03
2023-05-21T21:15:37.130Z,98909.94
2023-05-21T21:18:04.288Z,98910.50
2023-05-21T21:20:32.316Z,98908.02
2023-05-21T21:22:59.278Z,98909.88
2023-05-21T21:25:26.363Z,98907.60
2023-05-21T21:27:53.567Z,98903.90
2023-05-21T21:30:20.765Z,98910.52
2023-05-21T21:32:49.537Z,98912.94
2023-05-21T21:35:17.121Z,98913.56
2023-05-21T21:37:44.173Z,98915.04
2023-05-21T21:40:12.734Z,98914.70
2023-05-21T21:42:40.060Z,98913.91
2023-05-21T21:45:07.970Z,98917.27
2023-05-21T21:47:35.463Z,98916.63
2023-05-21T21:50:02.463Z,98917.48
2023-05-21T21:52:29.681Z,98915.21
2023-05-21T21:54:56.979Z,98918.66
2023-05-21T21:57:24.343Z,98921.56
2023-05-21T21:59:51.433Z,98922.53
2023-05-21T22:02:18.728Z,98923.17
2023-05-21T22:04:46.617Z,98924.71
2023-05-21T22:07:17.008Z,98925.23
2023-05-21T22:09:45.182Z,98920.89
2023-05-21T22:12:16.810Z,98924.98
2023-05-21T22:14:43.880Z,98921.91
2023-05-21T22:17:11.002Z,98917.67
2023-05-21T22:19:38.284Z,98918.11
2023-05-21T22:22:05.509Z,98918.61
2023-05-21T22:24:33.450Z,98918.54
2023-05-21T22:27:01.362Z,98916.43
2023-05-21T22:29:28.504Z,98918.23
2023-05-21T22:31:55.607Z,98920.84
2023-05-21T22:34:25.447Z,98925.70
2023-05-21T22:36:52.736Z,98919.96
2023-05-21T22:39:19.674Z,98914.87
2023-05-21T22:41:46.937Z,98912.48
2023-05-21T22:44:13.956Z,98914.42
2023-05-21T22:46:42.263Z,98909.70
2023-05-21T22:49:12.177Z,98902.30
2023-05-21T22:51:39.340Z,98901.53
2023-05-21T22:54:06.866Z,98900.96
2023-05-21T22:56:35.308Z,98899.17
2023-05-21T22:59:02.373Z,98898.82
2023-05-21T23:01:29.690Z,98897.10
2023-05-21T23:03:57.021Z,98896.39
2023-05-21T23:06:24.133Z,98893.38
2023-05-21T23:08:51.878Z,98894.11
2023-05-21T23:11:18.876Z,98894.20
2023-05-21T23:13:46.585Z,98890.94
2023-05-21T23:16:13.887Z,98890.39
2023-05-21T23:18:41.069Z,98891.89
2023-05-21T23:21:08.294Z,98890.99
2023-05-21T23:23:35.376Z,98888.92
2023-05-21T23:26:02.380Z,98885.76
2023-05-21T23:28:29.638Z,98881.70
2023-05-21T23:30:57.023Z,98883.20
2023-05-21T23:33:24.162Z,98884.70
2023-05-21T23:35:51.468Z,98880.63
2023-05-21T23:38:18.430Z,98884.55
2023-05-21T23:40:45.723Z,98887.76
2023-05-21T23:43:12.905Z,98883.09
2023-05-21T23:45:41.339Z,98879.52
2023-05-21T23:48:08.470Z,98877.28
2023-05-21T23:50:36.669Z,98874.59
2023-05-21T23:53:03.766Z,98880.87
2023-05-21T23:55:31.427Z,98877.27
2023-05-21T23:57:58.431Z,98878.30
